Time;durP1;ratioP1;P1;durP2;ratioP2;P2;SDS_P1;SDS_P2;PMS_P1;PMS_P2;Temp;Humidity;BMP_temperature;BMP_pressure;BME280_temperature;BME280_humidity;BME280_pressure;Samples;Min_cycle;Max_cycle;Signal;HPM_P1;HPM_P2
2022/12/03 00:00:13;;;;;;;;;43.00;36.25;;;;;7.57;63.58;101253.13;5020611;28;46725;-64
2022/12/03 00:02:39;;;;;;;;;41.50;30.00;;;;;7.55;63.13;101252.13;5018226;28;45206;-67
2022/12/03 00:05:05;;;;;;;;;39.50;32.50;;;;;7.58;63.42;101254.03;5010029;28;45165;-67
2022/12/03 00:07:30;;;;;;;;;45.00;36.50;;;;;7.56;63.62;101245.97;5012638;28;45671;-67
2022/12/03 00:09:55;;;;;;;;;44.75;34.50;;;;;7.61;64.66;101243.53;5017093;28;44923;-66
2022/12/03 00:12:21;;;;;;;;;54.25;32.00;;;;;7.75;63.95;101258.38;5007062;28;45231;-65
2022/12/03 00:14:46;;;;;;;;;39.75;33.25;;;;;7.67;62.71;101245.53;5024713;28;45050;-66
2022/12/03 00:17:11;;;;;;;;;45.25;34.00;;;;;7.58;62.94;101232.75;5011119;28;53754;-65
2022/12/03 00:19:42;;;;;;;;;59.00;42.50;;;;;7.59;64.06;101231.00;5009281;28;55407;-65
2022/12/03 00:22:08;;;;;;;;;54.50;40.25;;;;;7.67;63.02;101233.19;5007716;28;45297;-65
2022/12/03 00:24:33;;;;;;;;;44.25;35.50;;;;;7.78;63.36;101254.94;5007622;28;45472;-66
2022/12/03 00:26:58;;;;;;;;;45.25;34.50;;;;;7.75;62.25;101246.81;5039237;28;65525;-65
2022/12/03 00:29:24;;;;;;;;;55.75;42.00;;;;;7.70;63.81;101235.06;5008546;28;45618;-68
2022/12/03 00:31:49;;;;;;;;;49.75;35.00;;;;;7.70;62.59;101229.72;5010803;28;45190;-66
2022/12/03 00:34:14;;;;;;;;;43.50;32.50;;;;;7.75;62.59;101239.75;5012805;28;45133;-66
2022/12/03 00:36:40;;;;;;;;;41.00;32.50;;;;;7.75;63.00;101237.09;5012096;28;45225;-67
2022/12/03 00:39:05;;;;;;;;;42.75;34.75;;;;;7.64;62.89;101214.41;5014753;28;45161;-66
2022/12/03 00:41:30;;;;;;;;;48.25;36.75;;;;;7.67;62.61;101218.94;5018465;28;54503;-67
2022/12/03 00:43:56;;;;;;;;;43.00;32.25;;;;;7.73;62.36;101232.53;5039284;28;45203;-65
2022/12/03 00:46:25;;;;;;;;;48.75;34.00;;;;;7.63;62.71;101215.25;5012618;28;45823;-65
2022/12/03 00:48:50;;;;;;;;;37.75;33.25;;;;;7.64;62.45;101222.41;5028091;28;45693;-65
2022/12/03 00:51:16;;;;;;;;;63.75;49.75;;;;;7.64;63.36;101219.75;5028910;28;45224;-65
2022/12/03 00:53:41;;;;;;;;;49.50;37.50;;;;;7.69;62.73;101235.91;5010146;28;45579;-65
2022/12/03 00:56:07;;;;;;;;;51.25;38.50;;;;;7.71;62.96;101242.22;5035090;28;46506;-65
2022/12/03 00:58:32;;;;;;;;;48.25;37.00;;;;;7.69;62.88;101235.91;5014896;28;45482;-64
2022/12/03 01:00:57;;;;;;;;;38.50;35.25;;;;;7.57;62.46;101226.53;5019966;28;44901;-65
2022/12/03 01:03:23;;;;;;;;;56.00;38.25;;;;;7.60;63.80;101236.38;5010020;28;45026;-65
2022/12/03 01:05:48;;;;;;;;;51.25;40.25;;;;;7.51;62.93;101226.25;5014504;28;49598;-66
2022/12/03 01:08:13;;;;;;;;;42.50;30.00;;;;;7.54;62.57;101223.72;5028944;28;46618;-66
2022/12/03 01:10:38;;;;;;;;;45.25;36.00;;;;;7.09;63.03;101141.00;5006390;28;45359;-65
2022/12/03 01:13:04;;;;;;;;;36.50;34.25;;;;;7.61;62.79;101230.22;5021439;28;45237;-65
2022/12/03 01:15:29;;;;;;;;;43.25;35.75;;;;;7.63;62.73;101238.28;5016189;28;45716;-65
2022/12/03 01:17:55;;;;;;;;;41.50;35.75;;;;;7.64;62.34;101234.75;5030259;28;45076;-66
2022/12/03 01:20:20;;;;;;;;;38.00;35.00;;;;;7.57;62.48;101234.50;5013704;28;45381;-63
2022/12/03 01:22:45;;;;;;;;;47.00;35.00;;;;;7.50;63.17;101210.22;5011405;28;45072;-65
2022/12/03 01:25:11;;;;;;;;;48.50;37.25;;;;;7.61;63.74;101221.34;5027643;28;54054;-66
2022/12/03 01:27:36;;;;;;;;;36.75;30.50;;;;;7.66;63.75;101219.81;5009432;28;45379;-65
2022/12/03 01:30:01;;;;;;;;;42.75;35.25;;;;;7.75;62.62;101230.84;5008232;28;45256;-67
2022/12/03 01:32:27;;;;;;;;;42.00;35.25;;;;;7.67;63.25;101221.63;5010102;28;45196;-66
2022/12/03 01:34:53;;;;;;;;;37.50;33.50;;;;;7.59;62.67;101209.72;5010181;28;47334;-66
2022/12/03 01:37:21;;;;;;;;;47.00;35.00;;;;;7.63;63.32;101215.25;5040008;28;45069;-65
2022/12/03 01:39:46;;;;;;;;;42.75;31.75;;;;;7.56;62.05;101210.50;5012930;28;44951;-66
2022/12/03 01:42:38;;;;;;;;;56.00;35.75;;;;;7.63;62.85;101230.31;5018353;28;45086;-66
2022/12/03 01:45:05;;;;;;;;;46.00;37.25;;;;;7.63;63.29;101227.66;5002310;28;47520;-66
2022/12/03 01:47:33;;;;;;;;;48.25;32.75;;;;;7.67;62.46;101226.94;5021738;28;45554;-65
2022/12/03 01:50:07;;;;;;;;;55.75;40.00;;;;;7.66;63.12;101225.13;5014444;28;45273;-65
2022/12/03 01:52:37;;;;;;;;;38.25;29.00;;;;;7.60;62.45;101220.44;5039707;28;45230;-64
2022/12/03 01:55:10;;;;;;;;;38.00;31.50;;;;;7.64;62.63;101234.75;5016437;28;45311;-65
2022/12/03 01:57:39;;;;;;;;;49.50;39.50;;;;;7.70;62.84;101248.34;5011927;28;45129;-64
2022/12/03 02:00:06;;;;;;;;;47.50;37.00;;;;;7.62;62.33;101223.16;5013316;28;45217;-64
2022/12/03 02:02:32;;;;;;;;;46.75;33.25;;;;;7.59;61.89;101229.25;5014300;28;44966;-66
2022/12/03 02:04:59;;;;;;;;;46.00;34.75;;;;;7.61;62.17;101227.56;5012088;28;45470;-63
2022/12/03 02:07:26;;;;;;;;;45.75;35.25;;;;;7.64;62.10;101238.34;5012615;28;45147;-66
2022/12/03 02:09:53;;;;;;;;;48.25;38.50;;;;;7.61;62.65;101218.69;5015280;28;45153;-66
2022/12/03 02:12:26;;;;;;;;;38.75;28.75;;;;;7.62;61.86;101226.72;5011614;28;45456;-64
2022/12/03 02:14:52;;;;;;;;;36.75;34.75;;;;;7.69;61.85;101239.47;5028109;28;45401;-66
2022/12/03 02:17:18;;;;;;;;;39.25;34.25;;;;;7.65;62.40;101239.25;5011971;28;44943;-65
2022/12/03 02:19:44;;;;;;;;;48.25;34.00;;;;;7.62;61.69;101233.78;5009422;28;45229;-64
2022/12/03 02:22:32;;;;;;;;;45.75;36.00;;;;;7.66;62.40;101234.00;5011813;28;45412;-65
2022/12/03 02:24:58;;;;;;;;;44.00;28.25;;;;;7.68;62.06;101236.75;5011594;28;45448;-65
2022/12/03 02:27:24;;;;;;;;;30.00;28.75;;;;;7.63;62.12;101230.31;5010462;28;45128;-65
2022/12/03 02:29:50;;;;;;;;;52.50;37.25;;;;;7.59;61.62;101231.00;5016612;28;45434;-64
2022/12/03 02:32:15;;;;;;;;;45.00;37.00;;;;;7.61;61.69;101226.69;5021501;28;45370;-66
2022/12/03 02:34:43;;;;;;;;;45.50;37.75;;;;;7.60;61.50;101225.75;5011642;28;45829;-65
2022/12/03 02:37:23;;;;;;;;;54.75;35.00;;;;;7.49;61.64;101195.09;5010106;28;45085;-64
2022/12/03 02:39:53;;;;;;;;;51.50;38.25;;;;;7.69;62.46;101230.59;5009275;28;45368;-64
2022/12/03 02:42:34;;;;;;;;;45.25;34.75;;;;;7.72;61.94;101223.66;4973844;28;45392;-65
2022/12/03 02:45:19;;;;;;;;;38.25;33.75;;;;;7.60;61.78;101199.16;5010913;28;45197;-65
2022/12/03 02:47:48;;;;;;;;;47.00;35.50;;;;;7.66;61.81;101206.50;5027769;28;45204;-64
2022/12/03 02:50:18;;;;;;;;;51.00;36.00;;;;;7.74;61.51;101216.66;5010782;28;44999;-66
2022/12/03 02:52:45;;;;;;;;;43.00;32.75;;;;;7.76;62.12;101224.72;5012227;28;45427;-65
2022/12/03 02:55:14;;;;;;;;;43.00;37.25;;;;;7.75;60.85;101215.81;5016531;28;45143;-66
2022/12/03 02:57:40;;;;;;;;;47.50;37.00;;;;;7.61;61.61;101194.75;5018513;28;44957;-64
2022/12/03 03:00:09;;;;;;;;;49.00;38.00;;;;;7.71;62.00;101197.00;5012177;28;45149;-64
2022/12/03 03:02:36;;;;;;;;;56.00;34.00;;;;;7.63;61.86;101172.69;5013243;28;45126;-66
2022/12/03 03:05:02;;;;;;;;;53.00;33.00;;;;;7.77;61.63;101202.59;5011602;28;46978;-67
2022/12/03 03:07:28;;;;;;;;;35.50;29.25;;;;;7.73;62.07;101203.28;5013244;28;44999;-64
2022/12/03 03:09:53;;;;;;;;;43.00;33.25;;;;;7.70;61.47;101200.47;5010421;28;45287;-66
2022/12/03 03:12:18;;;;;;;;;46.75;33.75;;;;;7.69;62.02;101214.63;5011053;28;45262;-65
2022/12/03 03:14:44;;;;;;;;;47.75;36.25;;;;;7.55;61.93;101206.91;5010977;28;45219;-66
2022/12/03 03:17:09;;;;;;;;;45.00;35.50;;;;;7.43;61.35;101201.03;5010444;28;45376;-67
2022/12/03 03:19:35;;;;;;;;;48.00;35.00;;;;;7.47;62.16;101221.59;5010897;28;45013;-65
2022/12/03 03:22:00;;;;;;;;;39.25;33.00;;;;;7.32;62.74;101196.97;5039656;28;45285;-66
2022/12/03 03:24:26;;;;;;;;;39.50;31.00;;;;;7.48;62.24;101222.53;5006583;28;46096;-65
2022/12/03 03:26:51;;;;;;;;;46.50;28.75;;;;;7.34;62.23;101203.25;5025123;28;45692;-65
2022/12/03 03:29:17;;;;;;;;;42.25;35.00;;;;;7.42;62.29;101216.91;5019920;28;45101;-65
2022/12/03 03:31:45;;;;;;;;;42.50;34.50;;;;;7.41;62.34;101218.69;5020371;28;45301;-65
2022/12/03 03:34:10;;;;;;;;;48.75;35.50;;;;;7.37;62.22;101207.00;5011442;28;45583;-66
2022/12/03 03:36:36;;;;;;;;;40.25;32.25;;;;;7.41;62.06;101209.78;5009525;28;45335;-64
2022/12/03 03:39:03;;;;;;;;;45.75;36.50;;;;;7.49;62.23;101219.00;5011872;28;45113;-65
2022/12/03 03:41:29;;;;;;;;;41.25;32.75;;;;;7.37;61.76;101209.66;5010959;28;44969;-66
2022/12/03 03:43:55;;;;;;;;;58.25;34.75;;;;;7.46;61.88;101224.22;5015658;28;47297;-64
2022/12/03 03:46:21;;;;;;;;;43.00;31.75;;;;;7.32;62.01;101196.97;5012738;28;44935;-64
2022/12/03 03:48:48;;;;;;;;;38.50;27.50;;;;;7.32;61.70;101199.63;5022765;28;45348;-66
2022/12/03 03:51:15;;;;;;;;;43.25;34.25;;;;;7.38;62.88;101197.28;5012657;28;44944;-67
2022/12/03 03:53:48;;;;;;;;;53.25;35.00;;;;;7.40;62.40;101187.59;5008047;28;45231;-65
2022/12/03 03:56:16;;;;;;;;;47.00;33.00;;;;;7.50;62.14;101202.22;5010232;28;45339;-66
2022/12/03 03:58:41;;;;;;;;;54.25;37.50;;;;;7.49;61.88;101216.34;5012626;28;44989;-65
2022/12/03 04:01:08;;;;;;;;;43.00;31.75;;;;;7.42;61.39;101207.19;5039145;28;45059;-65
2022/12/03 04:03:33;;;;;;;;;53.25;34.75;;;;;7.42;62.21;101214.25;5014861;28;46453;-64
2022/12/03 04:05:59;;;;;;;;;49.75;35.50;;;;;7.27;62.28;101201.16;5009163;28;45254;-65
2022/12/03 04:08:24;;;;;;;;;51.75;37.00;;;;;7.34;62.01;101221.88;5010871;28;52750;-63
2022/12/03 04:13:33;;;;;;;;;48.25;33.50;;;;;7.42;61.23;101209.84;4995267;28;45737;-65
2022/12/03 04:15:59;;;;;;;;;36.25;30.75;;;;;7.45;62.68;101219.72;4999773;28;45566;-66
2022/12/03 04:18:42;;;;;;;;;42.75;36.00;;;;;7.41;62.52;101200.06;4999802;28;46035;-64
2022/12/03 04:24:04;;;;;;;;;38.00;29.25;;;;;7.37;61.07;101191.06;5011346;28;45116;-64
2022/12/03 04:29:14;;;;;;;;;45.50;35.00;;;;;7.35;60.83;101203.34;5012607;28;45010;-65
2022/12/03 04:37:08;;;;;;;;;50.25;33.00;;;;;7.36;60.97;101206.94;5015698;28;45382;-65
2022/12/03 04:39:34;;;;;;;;;40.50;29.50;;;;;7.34;61.29;101179.34;5011440;28;45608;-65
2022/12/03 04:41:59;;;;;;;;;43.25;30.75;;;;;7.43;61.89;101192.16;5010724;28;45360;-64
2022/12/03 04:44:36;;;;;;;;;41.75;35.00;;;;;7.42;61.16;101180.59;5010660;28;45113;-65
2022/12/03 04:47:11;;;;;;;;;44.75;31.25;;;;;7.46;61.15;101179.94;5025331;28;44965;-67
2022/12/03 04:49:40;;;;;;;;;36.75;29.50;;;;;7.39;60.59;101167.16;5017450;28;45004;-66
2022/12/03 04:52:05;;;;;;;;;34.00;23.00;;;;;7.49;61.44;101185.38;5011838;28;44949;-64
2022/12/03 04:54:31;;;;;;;;;38.75;28.75;;;;;7.49;60.55;101184.44;5045080;28;46199;-65
2022/12/03 04:56:56;;;;;;;;;36.50;30.00;;;;;7.40;60.36;101181.38;5010761;28;45643;-65
2022/12/03 04:59:22;;;;;;;;;46.50;35.25;;;;;7.32;60.46;101183.69;5031688;28;45569;-64
2022/12/03 05:01:47;;;;;;;;;40.75;32.25;;;;;7.21;61.12;101183.19;5042412;28;45530;-64
2022/12/03 05:04:13;;;;;;;;;36.50;29.00;;;;;7.25;60.63;101197.53;5010625;28;45357;-66
2022/12/03 05:06:39;;;;;;;;;31.50;24.75;;;;;7.18;61.09;101194.59;5011888;28;45001;-64
2022/12/03 05:09:04;;;;;;;;;34.75;29.50;;;;;7.20;61.23;101184.94;5031571;28;45071;-65
2022/12/03 05:11:30;;;;;;;;;40.50;31.75;;;;;7.17;61.22;101171.50;5020972;28;44972;-66
2022/12/03 05:13:55;;;;;;;;;38.00;31.00;;;;;7.19;60.88;101183.13;5014322;28;46134;-65
2022/12/03 05:16:21;;;;;;;;;45.50;23.25;;;;;7.13;60.80;101168.66;5014166;28;44952;-63
2022/12/03 05:18:46;;;;;;;;;39.00;30.75;;;;;7.15;60.85;101181.16;5008878;28;45333;-64
2022/12/03 05:21:12;;;;;;;;;35.25;29.50;;;;;7.11;61.17;101168.56;5020402;28;45259;-65
2022/12/03 05:23:37;;;;;;;;;40.50;35.00;;;;;7.09;60.45;101164.91;5012732;28;49457;-65
2022/12/03 05:26:02;;;;;;;;;41.25;33.75;;;;;7.23;61.91;101183.28;5014024;28;45434;-65
2022/12/03 05:28:28;;;;;;;;;30.50;27.75;;;;;7.19;61.57;101177.81;5014312;28;45363;-65
2022/12/03 05:30:53;;;;;;;;;35.50;29.00;;;;;7.19;60.91;101176.88;5017521;28;45081;-64
2022/12/03 05:33:19;;;;;;;;;30.75;24.50;;;;;7.26;60.69;101196.69;5022969;28;45395;-67
2022/12/03 05:35:45;;;;;;;;;44.25;33.25;;;;;7.24;60.93;101191.28;5026754;28;46094;-66
2022/12/03 05:38:10;;;;;;;;;30.50;25.00;;;;;7.25;60.85;101190.47;5024381;28;45381;-65
2022/12/03 05:40:36;;;;;;;;;51.25;34.75;;;;;7.15;61.04;101162.53;5014636;28;45170;-64
2022/12/03 05:43:01;;;;;;;;;36.25;32.50;;;;;7.21;60.54;101161.94;5026023;28;45389;-65
2022/12/03 05:45:28;;;;;;;;;35.50;28.75;;;;;7.15;60.49;101162.53;5031059;28;45110;-63
2022/12/03 05:47:55;;;;;;;;;25.50;25.50;;;;;7.28;60.75;101187.06;5028199;28;45043;-67
2022/12/03 05:50:22;;;;;;;;;33.75;26.50;;;;;7.30;60.81;101182.72;5015496;28;45085;-64
2022/12/03 05:52:48;;;;;;;;;35.00;29.50;;;;;7.07;59.95;101147.09;5012865;28;45870;-65
2022/12/03 05:55:14;;;;;;;;;36.75;27.75;;;;;7.18;60.38;101159.13;5047118;28;45219;-65
2022/12/03 05:57:40;;;;;;;;;30.50;27.50;;;;;7.26;60.72;101173.69;5022657;28;45139;-66
2022/12/03 06:00:11;;;;;;;;;34.50;27.50;;;;;7.29;61.02;101184.47;5014275;28;44864;-64
2022/12/03 06:02:36;;;;;;;;;33.75;27.75;;;;;7.33;60.63;101183.75;5014927;28;46142;-64
2022/12/03 06:05:02;;;;;;;;;37.50;30.25;;;;;7.38;60.88;101183.97;5014325;28;44995;-65
2022/12/03 06:07:27;;;;;;;;;32.75;28.00;;;;;7.41;60.36;101186.78;5014627;28;45203;-64
2022/12/03 06:09:52;;;;;;;;;42.00;30.25;;;;;7.40;60.24;101169.00;5019531;28;45272;-65
2022/12/03 06:12:19;;;;;;;;;44.75;31.00;;;;;7.42;60.83;101169.97;5017026;28;50905;-64
2022/12/03 06:14:44;;;;;;;;;34.25;29.00;;;;;7.36;59.87;101156.44;5014451;28;46748;-64
2022/12/03 06:17:09;;;;;;;;;29.50;28.25;;;;;7.43;59.88;101176.22;5015770;28;44915;-65
2022/12/03 06:19:35;;;;;;;;;31.50;25.25;;;;;7.43;59.83;101179.78;5021892;28;45034;-65
2022/12/03 06:22:00;;;;;;;;;25.50;23.50;;;;;7.40;60.31;101176.97;5031895;28;46759;-64
2022/12/03 06:24:26;;;;;;;;;36.00;31.25;;;;;7.30;59.94;101164.09;5036358;28;46525;-64
2022/12/03 06:26:51;;;;;;;;;34.00;29.25;;;;;7.29;61.13;101160.56;5020424;28;45167;-65
2022/12/03 06:29:16;;;;;;;;;42.00;27.25;;;;;7.29;59.79;101157.88;5030119;28;44992;-64
2022/12/03 06:31:42;;;;;;;;;29.25;24.25;;;;;7.16;59.82;101148.44;5015263;28;45090;-64
2022/12/03 06:34:07;;;;;;;;;36.75;28.75;;;;;7.32;60.81;101176.59;5041405;28;48763;-66
2022/12/03 06:36:32;;;;;;;;;27.75;24.75;;;;;7.29;60.26;101170.25;5016193;28;45225;-65
2022/12/03 06:38:58;;;;;;;;;30.75;27.50;;;;;7.35;60.78;101175.84;5013255;28;45133;-64
2022/12/03 06:41:23;;;;;;;;;41.00;26.00;;;;;7.35;60.63;101168.78;5013312;28;45386;-65
2022/12/03 06:43:48;;;;;;;;;33.75;23.50;;;;;7.39;61.20;101167.16;5042962;28;45381;-66
2022/12/03 06:46:14;;;;;;;;;31.00;27.75;;;;;7.31;59.85;101157.94;5014190;28;45382;-65
2022/12/03 06:48:39;;;;;;;;;28.50;23.50;;;;;7.31;59.54;101161.53;5027247;28;45043;-65
2022/12/03 06:51:04;;;;;;;;;35.25;27.25;;;;;7.25;59.58;101171.84;5013943;28;52664;-65
2022/12/03 06:53:29;;;;;;;;;29.50;23.25;;;;;7.18;59.74;101153.81;5013499;28;50406;-67
2022/12/03 06:55:55;;;;;;;;;29.50;21.50;;;;;7.30;60.32;101175.63;5013013;28;50043;-65
2022/12/03 06:58:20;;;;;;;;;37.25;27.75;;;;;7.19;59.97;101156.56;5026988;28;44958;-67
2022/12/03 07:00:46;;;;;;;;;40.75;31.75;;;;;7.30;60.05;101169.41;5014523;28;53201;-66
2022/12/03 07:03:11;;;;;;;;;39.00;33.25;;;;;7.19;60.60;101137.94;5011635;28;44962;-66
2022/12/03 07:05:36;;;;;;;;;37.50;28.25;;;;;7.38;60.60;101176.00;5014130;28;45289;-66
2022/12/03 07:08:02;;;;;;;;;27.75;25.50;;;;;7.34;59.95;101166.97;5014267;28;45248;-65
2022/12/03 07:10:27;;;;;;;;;30.25;24.50;;;;;7.25;60.36;101181.59;5013378;28;45381;-66
2022/12/03 07:12:53;;;;;;;;;29.00;25.25;;;;;7.27;60.31;101180.81;5013720;28;44907;-65
2022/12/03 07:15:18;;;;;;;;;33.00;28.25;;;;;7.26;60.65;101176.34;5022431;28;45366;-63
2022/12/03 07:17:43;;;;;;;;;30.00;26.00;;;;;7.29;60.22;101179.16;5025119;28;45114;-66
2022/12/03 07:20:09;;;;;;;;;32.50;22.00;;;;;7.24;59.90;101175.34;5047389;28;46180;-66
2022/12/03 07:22:34;;;;;;;;;42.25;33.50;;;;;7.19;60.53;101177.81;5013440;28;45083;-65
2022/12/03 07:25:00;;;;;;;;;36.50;27.25;;;;;7.14;60.26;101168.72;5022061;28;45347;-65
2022/12/03 07:27:25;;;;;;;;;29.00;26.00;;;;;7.25;60.81;101171.84;5016023;28;45017;-65
2022/12/03 07:29:50;;;;;;;;;46.75;31.00;;;;;7.23;60.25;101181.50;5020517;28;50285;-66
2022/12/03 07:32:16;;;;;;;;;32.75;28.00;;;;;7.25;60.21;101178.94;5015092;28;45038;-65
2022/12/03 07:34:41;;;;;;;;;34.00;28.75;;;;;7.19;60.57;101175.16;5031133;28;45142;-65
2022/12/03 07:37:07;;;;;;;;;29.00;24.50;;;;;7.31;60.42;101189.81;5033824;28;45050;-65
2022/12/03 07:39:32;;;;;;;;;26.00;26.00;;;;;7.20;60.53;101192.00;5031169;28;46021;-65
2022/12/03 07:41:57;;;;;;;;;28.50;24.00;;;;;7.25;60.98;101195.78;5021841;28;45179;-68
2022/12/03 07:44:23;;;;;;;;;26.75;24.00;;;;;7.30;60.20;101191.59;5013064;28;46167;-65
2022/12/03 07:46:48;;;;;;;;;29.00;23.50;;;;;7.20;59.79;101174.28;5018468;28;45094;-65
2022/12/03 07:49:13;;;;;;;;;30.00;24.75;;;;;7.23;59.98;101183.28;5019720;28;45469;-67
2022/12/03 07:51:39;;;;;;;;;31.75;25.00;;;;;7.14;59.96;101168.72;5010507;28;45144;-66
2022/12/03 07:54:05;;;;;;;;;33.75;27.25;;;;;7.33;59.27;101198.81;5010875;28;45068;-66
2022/12/03 07:56:30;;;;;;;;;27.50;20.00;;;;;7.12;59.26;101182.75;5023758;28;45010;-65
2022/12/03 07:58:56;;;;;;;;;35.00;25.50;;;;;7.21;59.16;101201.81;5021789;28;47009;-64
2022/12/03 08:01:21;;;;;;;;;28.50;24.00;;;;;7.19;59.88;101200.78;5009523;28;45141;-66
2022/12/03 08:03:46;;;;;;;;;32.00;23.00;;;;;7.18;59.24;101201.66;5016846;28;45059;-65
2022/12/03 08:06:12;;;;;;;;;27.50;22.25;;;;;7.22;59.63;101202.69;5020153;28;44923;-66
2022/12/03 08:08:38;;;;;;;;;27.50;23.75;;;;;7.16;59.53;101200.66;5010112;28;45718;-64
2022/12/03 08:11:03;;;;;;;;;31.50;24.50;;;;;7.16;59.37;101190.94;5021655;28;45242;-63
2022/12/03 08:13:29;;;;;;;;;23.25;18.00;;;;;7.15;59.14;101183.81;5024829;28;45163;-64
2022/12/03 08:15:59;;;;;;;;;31.75;26.25;;;;;7.20;59.00;101192.00;5014779;28;45494;-65
2022/12/03 08:18:24;;;;;;;;;29.75;20.50;;;;;7.27;59.49;101191.44;5016130;28;45006;-63
2022/12/03 08:20:51;;;;;;;;;30.25;23.50;;;;;7.31;59.93;101189.81;5014656;28;45152;-65
2022/12/03 08:23:20;;;;;;;;;21.75;18.50;;;;;7.33;59.21;101193.50;5017230;28;44930;-65
2022/12/03 08:25:46;;;;;;;;;23.25;22.00;;;;;7.28;58.79;101184.41;5011495;28;45118;-65
2022/12/03 08:28:14;;;;;;;;;25.25;21.50;;;;;7.29;58.47;101189.78;5029609;28;45144;-64
2022/12/03 08:30:41;;;;;;;;;33.75;23.00;;;;;7.34;58.75;101185.59;5027148;28;45124;-65
2022/12/03 08:33:19;;;;;;;;;27.00;24.25;;;;;7.33;58.88;101175.78;5014767;28;45235;-65
2022/12/03 08:35:51;;;;;;;;;26.50;18.75;;;;;7.34;57.85;101177.63;5024273;28;44915;-65
2022/12/03 08:38:21;;;;;;;;;24.00;20.75;;;;;7.38;58.91;101192.84;5027262;28;47072;-64
2022/12/03 08:40:49;;;;;;;;;27.75;21.75;;;;;7.38;58.76;101189.28;5026605;28;45142;-65
2022/12/03 08:43:23;;;;;;;;;27.25;20.25;;;;;7.32;58.13;101171.28;5019555;28;45150;-62
2022/12/03 08:45:56;;;;;;;;;17.75;15.25;;;;;7.30;58.52;101180.06;5024383;28;45330;-65
2022/12/03 08:48:37;;;;;;;;;25.50;18.75;;;;;7.32;57.74;101179.25;5015319;28;45267;-64
2022/12/03 08:51:08;;;;;;;;;22.50;18.25;;;;;7.32;57.82;101183.69;5042707;28;45356;-63
2022/12/03 08:53:44;;;;;;;;;34.00;22.75;;;;;7.25;58.46;101178.94;5030870;28;45116;-65
2022/12/03 08:56:27;;;;;;;;;24.75;21.50;;;;;7.22;58.11;101192.97;5013091;28;45597;-65
2022/12/03 08:58:52;;;;;;;;;31.75;20.75;;;;;7.27;58.51;101195.84;5024229;28;45068;-66
2022/12/03 09:01:27;;;;;;;;;22.50;17.50;;;;;7.25;58.22;101190.47;5016388;28;45398;-63
2022/12/03 09:03:54;;;;;;;;;28.75;20.25;;;;;7.09;58.48;101167.56;5017503;28;44919;-62
2022/12/03 09:06:21;;;;;;;;;24.75;20.00;;;;;7.20;58.62;101179.59;5016321;28;45077;-64
2022/12/03 09:08:46;;;;;;;;;28.25;23.50;;;;;7.26;58.05;101186.97;5021159;28;45627;-64
2022/12/03 09:11:12;;;;;;;;;27.25;23.25;;;;;7.21;58.27;101177.88;5034452;28;45052;-65
2022/12/03 09:13:37;;;;;;;;;34.75;24.25;;;;;7.29;58.28;101186.19;5018132;28;44970;-66
2022/12/03 09:16:03;;;;;;;;;28.75;27.00;;;;;7.26;58.07;101186.03;5020043;28;46064;-64
2022/12/03 09:18:28;;;;;;;;;26.00;22.75;;;;;7.18;59.03;101183.94;5019973;28;45096;-65
2022/12/03 09:20:54;;;;;;;;;24.00;17.75;;;;;7.32;58.35;101192.56;5012965;28;46432;-64
2022/12/03 09:23:19;;;;;;;;;21.50;18.50;;;;;7.30;57.99;101188.94;5015144;28;45063;-65
2022/12/03 09:25:45;;;;;;;;;26.25;20.00;;;;;7.30;57.81;101191.59;5016862;28;45105;-65
2022/12/03 09:28:10;;;;;;;;;18.50;16.00;;;;;7.30;57.15;101188.94;5024763;28;51579;-65
2022/12/03 09:30:35;;;;;;;;;26.00;21.25;;;;;7.30;58.15;101183.59;5028915;28;45086;-63
2022/12/03 09:33:00;;;;;;;;;21.25;17.25;;;;;7.38;57.61;101191.94;5027356;28;44970;-65
2022/12/03 09:35:29;;;;;;;;;17.50;12.75;;;;;7.35;56.97;101199.78;5032141;28;45188;-63
2022/12/03 09:37:55;;;;;;;;;23.75;19.25;;;;;7.34;57.77;101198.88;5017818;28;45604;-64
2022/12/03 09:40:21;;;;;;;;;19.00;18.75;;;;;7.15;57.73;101167.84;5022201;28;45106;-65
2022/12/03 09:42:46;;;;;;;;;18.50;18.50;;;;;7.23;57.71;101170.88;5015682;28;45073;-64
2022/12/03 09:45:14;;;;;;;;;24.75;19.00;;;;;7.26;57.60;101176.34;5022194;28;45247;-65
2022/12/03 09:47:43;;;;;;;;;20.50;19.75;;;;;7.33;57.72;101197.03;5026594;28;45227;-64
2022/12/03 09:50:20;;;;;;;;;27.25;21.75;;;;;7.28;57.63;101177.31;5023930;28;45088;-66
2022/12/03 09:52:46;;;;;;;;;60.50;43.50;;;;;7.29;57.96;101162.28;5029981;28;45267;-66
2022/12/03 09:55:17;;;;;;;;;65.25;48.00;;;;;7.42;57.85;101191.25;5015386;28;45017;-68
2022/12/03 09:57:42;;;;;;;;;58.50;47.00;;;;;7.33;57.75;101170.47;5027002;28;46916;-62
2022/12/03 10:00:34;;;;;;;;;45.00;33.75;;;;;7.47;57.40;101186.13;5020110;28;45057;-65
2022/12/03 10:03:03;;;;;;;;;31.25;27.00;;;;;7.43;57.88;101179.78;5047514;28;45464;-63
2022/12/03 10:05:29;;;;;;;;;26.00;21.00;;;;;7.50;57.60;101181.88;5029794;28;45282;-65
2022/12/03 10:08:02;;;;;;;;;25.75;22.00;;;;;7.52;57.76;101173.97;5022023;28;45749;-64
2022/12/03 10:10:28;;;;;;;;;31.25;25.50;;;;;7.56;58.31;101176.84;5029515;28;45308;-65
2022/12/03 10:12:54;;;;;;;;;34.25;25.00;;;;;7.54;57.78;101151.94;5023827;28;45292;-66
2022/12/03 10:15:23;;;;;;;;;34.50;25.00;;;;;7.25;57.52;101100.09;5016307;28;45118;-64
2022/12/03 10:17:51;;;;;;;;;29.50;23.75;;;;;7.51;57.58;101143.81;5035720;28;46875;-64
2022/12/03 10:20:19;;;;;;;;;29.25;24.00;;;;;7.66;57.20;101171.94;5018473;28;45063;-67
2022/12/03 10:22:47;;;;;;;;;44.25;34.75;;;;;7.59;57.73;101156.53;5011193;28;45113;-65
2022/12/03 10:25:17;;;;;;;;;29.50;22.75;;;;;7.65;58.55;101151.50;5013697;28;45329;-65
2022/12/03 10:27:55;;;;;;;;;47.75;37.00;;;;;7.81;57.86;101148.69;5011391;28;45561;-65
2022/12/03 10:30:22;;;;;;;;;34.00;29.00;;;;;7.85;56.70;101141.72;5015490;28;45751;-65
2022/12/03 10:32:49;;;;;;;;;26.50;21.00;;;;;7.86;56.46;101141.81;5023306;28;46423;-64
2022/12/03 10:35:19;;;;;;;;;31.50;24.00;;;;;7.83;56.36;101143.44;5012445;28;44954;-64
2022/12/03 10:37:58;;;;;;;;;18.50;18.00;;;;;7.83;57.00;101146.09;5023592;28;45076;-65
2022/12/03 10:40:27;;;;;;;;;42.75;36.75;;;;;7.75;56.92;101148.41;5027101;28;45325;-68
2022/12/03 10:43:17;;;;;;;;;23.25;18.50;;;;;7.71;56.72;101134.06;5014611;28;45323;-65
2022/12/03 10:45:46;;;;;;;;;32.00;26.75;;;;;7.72;56.39;101134.97;5012588;28;44912;-65
2022/12/03 10:48:15;;;;;;;;;29.25;26.50;;;;;7.79;56.70;101147.72;5028166;28;44955;-64
2022/12/03 10:51:05;;;;;;;;;33.75;25.00;;;;;7.74;56.53;101134.19;5014339;28;45210;-65
2022/12/03 10:53:34;;;;;;;;;31.50;28.75;;;;;7.49;56.08;101072.78;5018004;28;44988;-62
2022/12/03 10:56:03;;;;;;;;;38.75;30.25;;;;;7.85;56.31;101139.06;5022412;28;45179;-67
2022/12/03 10:58:33;;;;;;;;;32.25;30.00;;;;;7.89;56.24;101136.63;5029468;28;45977;-62
2022/12/03 11:01:02;;;;;;;;;54.75;41.00;;;;;7.62;56.50;101091.09;5021288;28;45262;-63
2022/12/03 11:03:32;;;;;;;;;47.75;38.00;;;;;7.92;56.23;101138.53;5010687;28;45373;-65
2022/12/03 11:05:59;;;;;;;;;26.25;23.25;;;;;7.95;57.33;101133.31;5016157;28;45121;-66
2022/12/03 11:08:29;;;;;;;;;25.75;22.00;;;;;7.89;56.15;101106.47;5012367;28;45416;-67
2022/12/03 11:11:19;;;;;;;;;34.00;30.25;;;;;7.96;56.64;101121.84;5011639;28;45309;-63
2022/12/03 11:13:46;;;;;;;;;36.00;30.00;;;;;7.84;56.56;101092.06;5010624;28;45535;-69
2022/12/03 11:16:13;;;;;;;;;19.50;15.50;;;;;8.00;55.91;101121.13;5016713;28;45092;-65
2022/12/03 11:18:38;;;;;;;;;37.00;20.00;;;;;7.98;56.64;101120.13;5013785;28;45830;-68
2022/12/03 11:21:07;;;;;;;;;38.00;28.25;;;;;7.97;56.32;101125.38;5014233;28;45138;-63
2022/12/03 11:23:44;;;;;;;;;30.50;25.00;;;;;7.96;56.63;101112.94;5013238;28;45772;-63
2022/12/03 11:26:27;;;;;;;;;46.00;37.00;;;;;7.94;55.58;101118.22;5013096;28;45005;-67
2022/12/03 11:28:58;;;;;;;;;43.00;36.75;;;;;7.87;56.17;101110.78;5013805;28;46050;-60
2022/12/03 11:31:35;;;;;;;;;25.25;25.00;;;;;7.85;55.92;101113.41;5013458;28;44913;-64